Paradise, Texas
Current Conditions -  °F | °C
As of 4:55 PM on Thursday 23 Oct 2014 (Local Time) from KXBP Reporting Station
Scattered Clouds Scattered Clouds  
Wind Chill: 80°   Ceiling: Unl
Heat Index: 81°   Visibility: 10mi
Dew Point: 60°   Wind: 5mph
Humidity: 50%   Direction: 180°S
Pressure: 30.07"   Gusts: NA
Location:  33.15°N, 97.69°W
Report Text: KXBP 232155Z AUTO 18004KT 10SM SCT050 SCT080 27/16 A3007 RMK AO2 T02660155
Loading
Personal Weather Stations






























Interactive Weather Map
Tropical Storm Tracking
New forecast layout! Learn more

10-Day Weather Forecast

Advertisements
Track Severe Weather on mobile